createdAt,value
2017-05-08T00:01:14.309Z,8.70
2017-05-08T00:03:43.276Z,8.60
2017-05-08T00:06:11.584Z,8.80
2017-05-08T00:08:39.825Z,8.60
2017-05-08T00:11:08.230Z,8.60
2017-05-08T00:13:37.259Z,8.60
2017-05-08T00:16:05.480Z,8.70
2017-05-08T00:18:33.710Z,8.70
2017-05-08T00:21:02.188Z,8.80
2017-05-08T00:23:30.420Z,8.70
2017-05-08T00:25:59.387Z,8.70
2017-05-08T00:28:27.638Z,8.70
2017-05-08T00:30:55.987Z,8.70
2017-05-08T00:33:24.226Z,8.70
2017-05-08T00:35:52.565Z,8.70
2017-05-08T00:38:20.891Z,8.70
2017-05-08T00:40:49.899Z,8.60
2017-05-08T00:43:18.161Z,8.70
2017-05-08T00:45:47.152Z,8.60
2017-05-08T00:48:16.148Z,8.70
2017-05-08T00:50:45.187Z,8.70
2017-05-08T00:53:13.473Z,8.70
2017-05-08T00:55:41.789Z,8.70
2017-05-08T00:58:10.876Z,8.60
2017-05-08T01:00:39.851Z,8.60
2017-05-08T01:03:08.160Z,8.70
2017-05-08T01:05:36.421Z,8.60
2017-05-08T01:08:05.384Z,8.60
2017-05-08T01:10:33.684Z,8.70
2017-05-08T01:13:02.672Z,8.70
2017-05-08T01:15:30.927Z,8.80
2017-05-08T01:17:59.237Z,8.80
2017-05-08T01:20:28.232Z,8.70
2017-05-08T01:22:57.197Z,8.80
2017-05-08T01:25:25.507Z,8.80
2017-05-08T01:27:53.763Z,8.80
2017-05-08T01:30:22.765Z,8.80
2017-05-08T01:32:51.743Z,8.80
2017-05-08T01:35:19.984Z,8.80
2017-05-08T01:37:48.214Z,8.90
2017-05-08T01:40:16.448Z,8.90
2017-05-08T01:42:44.702Z,8.90
2017-05-08T01:45:12.929Z,8.90
2017-05-08T01:47:41.944Z,8.90
2017-05-08T01:50:10.195Z,9.00
2017-05-08T01:52:39.211Z,8.80
2017-05-08T01:55:07.469Z,8.90
2017-05-08T01:57:36.480Z,8.90
2017-05-08T02:00:04.712Z,9.00
2017-05-08T02:02:32.944Z,8.90
2017-05-08T02:05:01.289Z,9.00
2017-05-08T02:07:30.264Z,8.90
2017-05-08T02:09:59.234Z,8.90
2017-05-08T02:12:27.492Z,9.00
2017-05-08T02:14:55.715Z,8.90
2017-05-08T02:17:24.705Z,8.90
2017-05-08T02:19:53.708Z,8.90
2017-05-08T02:22:21.983Z,9.00
2017-05-08T02:24:50.260Z,9.00
2017-05-08T02:27:18.644Z,9.00
2017-05-08T02:29:46.912Z,9.00
2017-05-08T02:32:15.141Z,8.90
2017-05-08T02:34:43.464Z,9.00
2017-05-08T02:37:11.750Z,9.00
2017-05-08T02:39:39.968Z,9.00
2017-05-08T02:42:08.284Z,9.00
2017-05-08T02:44:37.249Z,8.90
2017-05-08T02:47:05.476Z,8.90
2017-05-08T02:49:33.734Z,9.00
2017-05-08T02:52:01.969Z,8.90
2017-05-08T02:54:30.280Z,8.90
2017-05-08T02:56:58.523Z,8.90
2017-05-08T02:59:26.752Z,9.00
2017-05-08T03:01:54.996Z,9.00
2017-05-08T03:04:24.100Z,9.00
2017-05-08T03:06:52.337Z,9.00
2017-05-08T03:09:20.560Z,9.00
2017-05-08T03:11:48.815Z,9.00
2017-05-08T03:14:17.782Z,8.90
2017-05-08T03:16:46.091Z,8.90
2017-05-08T03:19:14.337Z,8.90
2017-05-08T03:21:42.678Z,8.90
2017-05-08T03:24:10.913Z,8.90
2017-05-08T03:26:39.904Z,8.90
2017-05-08T03:29:08.861Z,8.90
2017-05-08T03:31:37.177Z,9.00
2017-05-08T03:34:05.423Z,9.00
2017-05-08T03:36:33.743Z,8.90
2017-05-08T03:39:01.973Z,8.90
2017-05-08T03:41:30.270Z,8.80
2017-05-08T03:43:59.240Z,8.70
2017-05-08T03:46:27.475Z,8.80
2017-05-08T03:48:55.829Z,8.80
2017-05-08T03:51:24.089Z,8.70
2017-05-08T03:53:52.319Z,8.70
2017-05-08T03:56:20.578Z,8.70
2017-05-08T03:58:48.809Z,8.70
2017-05-08T04:01:17.782Z,8.70
2017-05-08T04:03:46.041Z,8.60
2017-05-08T04:06:14.398Z,8.60
2017-05-08T04:08:42.633Z,8.50
2017-05-08T04:11:11.023Z,8.50
2017-05-08T04:13:39.251Z,8.50
2017-05-08T04:16:07.497Z,8.50
2017-05-08T04:18:35.780Z,8.50
2017-05-08T04:21:04.118Z,8.40
2017-05-08T04:23:32.355Z,8.50
2017-05-08T04:26:00.637Z,8.40
2017-05-08T04:28:28.863Z,8.40
2017-05-08T04:30:57.092Z,8.50
2017-05-08T04:33:25.355Z,8.50
2017-05-08T04:35:53.660Z,8.40
2017-05-08T04:38:22.665Z,8.40
2017-05-08T04:40:50.912Z,8.40
2017-05-08T04:43:19.916Z,8.40
2017-05-08T04:45:48.959Z,8.40
2017-05-08T04:48:17.306Z,8.50
2017-05-08T04:50:45.537Z,8.50
2017-05-08T04:53:13.772Z,8.50
2017-05-08T04:55:42.122Z,8.40
2017-05-08T04:58:11.250Z,8.40
2017-05-08T05:00:39.572Z,8.40
2017-05-08T05:03:08.583Z,8.40
2017-05-08T05:05:36.854Z,8.50
2017-05-08T05:08:05.859Z,8.50
2017-05-08T05:10:34.134Z,8.70
2017-05-08T05:13:02.393Z,8.70
2017-05-08T05:15:30.676Z,8.60
2017-05-08T05:17:59.177Z,8.60
2017-05-08T05:20:27.449Z,8.70
2017-05-08T05:22:55.752Z,8.70
2017-05-08T05:25:24.025Z,8.70
2017-05-08T05:27:52.253Z,8.70
2017-05-08T05:30:21.216Z,8.60
2017-05-08T05:32:49.476Z,8.70
2017-05-08T05:35:17.724Z,8.70
2017-05-08T05:37:46.052Z,8.70
2017-05-08T05:40:14.300Z,8.80
2017-05-08T05:42:42.565Z,8.70
2017-05-08T05:45:10.798Z,8.70
2017-05-08T05:47:40.001Z,8.70
2017-05-08T05:50:08.272Z,8.80
2017-05-08T05:52:36.552Z,8.80
2017-05-08T05:55:04.859Z,8.70
2017-05-08T05:57:33.088Z,8.70
2017-05-08T06:00:02.060Z,8.70
2017-05-08T06:02:30.320Z,8.70
2017-05-08T06:04:58.575Z,8.70
2017-05-08T06:07:26.803Z,8.70
2017-05-08T06:09:55.076Z,8.70
2017-05-08T06:12:23.427Z,8.70
2017-05-08T06:14:51.679Z,8.70
2017-05-08T06:17:20.160Z,8.80
2017-05-08T06:19:48.560Z,8.70
2017-05-08T06:22:16.795Z,8.60
2017-05-08T06:24:45.816Z,8.60
2017-05-08T06:27:14.084Z,8.60
2017-05-08T06:29:41.651Z,8.50
2017-05-08T06:32:09.913Z,8.60
2017-05-08T06:34:38.217Z,8.70
2017-05-08T06:37:06.447Z,8.70
2017-05-08T06:39:35.457Z,8.60
2017-05-08T06:42:04.453Z,8.60
2017-05-08T06:44:32.701Z,8.60
2017-05-08T06:47:00.996Z,8.60
2017-05-08T06:49:29.284Z,8.60
2017-05-08T06:51:57.560Z,8.60
2017-05-08T06:54:25.866Z,8.60
2017-05-08T06:56:54.243Z,8.60
2017-05-08T06:59:22.511Z,8.50
2017-05-08T07:01:50.769Z,8.50
2017-05-08T07:04:19.136Z,8.50
2017-05-08T07:06:47.409Z,8.50
2017-05-08T07:09:15.730Z,8.50
2017-05-08T07:11:44.088Z,8.60
2017-05-08T07:14:13.087Z,8.60
2017-05-08T07:16:41.363Z,8.70
2017-05-08T07:19:09.617Z,8.70
2017-05-08T07:21:37.954Z,8.70
2017-05-08T07:24:06.248Z,8.70
2017-05-08T07:26:34.608Z,8.70
2017-05-08T07:29:02.948Z,8.70
2017-05-08T07:31:31.216Z,8.70
2017-05-08T07:33:59.536Z,8.90
2017-05-08T07:36:27.868Z,9.00
2017-05-08T07:38:56.860Z,9.10
2017-05-08T07:41:25.847Z,9.10
2017-05-08T07:43:54.853Z,9.20
2017-05-08T07:46:23.119Z,9.30
2017-05-08T07:48:52.155Z,9.40
2017-05-08T07:51:20.390Z,9.40
2017-05-08T07:53:48.711Z,9.50
2017-05-08T07:56:16.933Z,9.50
2017-05-08T07:58:45.925Z,9.50
2017-05-08T08:01:14.950Z,9.60
2017-05-08T08:03:43.164Z,9.70
2017-05-08T08:06:11.465Z,9.70
2017-05-08T08:08:40.476Z,9.60
2017-05-08T08:11:08.706Z,9.60
2017-05-08T08:13:36.924Z,9.70
2017-05-08T08:16:05.212Z,9.80
2017-05-08T08:18:33.512Z,9.70
2017-05-08T08:21:01.733Z,9.90
2017-05-08T08:23:30.717Z,9.70
2017-05-08T08:25:59.716Z,9.70
2017-05-08T08:28:27.968Z,9.60
2017-05-08T08:30:56.286Z,9.70
2017-05-08T08:33:25.003Z,9.50
2017-05-08T08:35:53.336Z,9.50
2017-05-08T08:38:22.340Z,9.30
2017-05-08T08:40:50.654Z,9.30
2017-05-08T08:43:18.929Z,9.40
2017-05-08T08:45:47.264Z,9.50
2017-05-08T08:48:15.557Z,9.50
2017-05-08T08:50:43.778Z,9.60
2017-05-08T08:53:12.116Z,9.70
2017-05-08T08:55:40.344Z,9.90
2017-05-08T08:58:09.309Z,9.90
2017-05-08T09:00:37.593Z,10.00
2017-05-08T09:03:05.834Z,10.00
2017-05-08T09:05:34.119Z,10.10
2017-05-08T09:08:02.367Z,10.10
2017-05-08T09:10:30.661Z,10.30
2017-05-08T09:12:58.917Z,10.30
2017-05-08T09:15:27.330Z,10.30
2017-05-08T09:17:55.556Z,10.30
2017-05-08T09:20:23.828Z,10.40
2017-05-08T09:22:52.800Z,10.40
2017-05-08T09:25:21.782Z,10.40
2017-05-08T09:27:50.136Z,10.60
2017-05-08T09:30:18.512Z,10.80
2017-05-08T09:32:46.851Z,11.10
2017-05-08T09:35:15.117Z,11.20
2017-05-08T09:37:44.102Z,11.30
2017-05-08T09:40:13.086Z,11.40
2017-05-08T09:42:41.425Z,11.30
2017-05-08T09:45:09.768Z,11.50
2017-05-08T09:47:38.011Z,11.30
2017-05-08T09:50:06.258Z,11.30
2017-05-08T09:52:34.528Z,11.50
2017-05-08T09:55:02.801Z,11.70
2017-05-08T09:57:31.030Z,11.70
2017-05-08T10:00:00.171Z,11.70
2017-05-08T10:02:28.616Z,11.60
2017-05-08T10:04:56.891Z,11.50
2017-05-08T10:07:25.125Z,11.70
2017-05-08T10:09:53.376Z,12.00
2017-05-08T10:12:21.624Z,12.10
2017-05-08T10:14:49.926Z,12.20
2017-05-08T10:17:18.200Z,12.20
2017-05-08T10:19:46.541Z,12.10
2017-05-08T10:22:14.909Z,12.00
2017-05-08T10:24:44.012Z,12.10
2017-05-08T10:27:12.257Z,12.10
2017-05-08T10:29:40.490Z,12.20
2017-05-08T10:32:08.724Z,12.20
2017-05-08T10:34:37.705Z,12.20
2017-05-08T10:37:06.034Z,12.30
2017-05-08T10:39:34.264Z,12.10
2017-05-08T10:42:02.701Z,12.20
2017-05-08T10:44:31.073Z,12.30
2017-05-08T10:46:59.302Z,12.40
2017-05-08T10:49:28.321Z,12.60
2017-05-08T10:51:56.569Z,12.90
2017-05-08T10:54:25.714Z,13.00
2017-05-08T10:56:53.969Z,13.00
2017-05-08T10:59:22.244Z,12.90
2017-05-08T11:01:50.537Z,12.90
2017-05-08T11:04:18.787Z,12.80
2017-05-08T11:06:47.076Z,13.00
2017-05-08T11:09:15.466Z,13.10
2017-05-08T11:11:45.573Z,13.30
2017-05-08T11:14:13.867Z,13.40
2017-05-08T11:16:42.129Z,13.40
2017-05-08T11:19:10.436Z,13.40
2017-05-08T11:21:38.672Z,13.30
2017-05-08T11:24:06.927Z,13.40
2017-05-08T11:26:35.173Z,13.60
2017-05-08T11:29:03.593Z,13.50
2017-05-08T11:31:31.892Z,13.10
2017-05-08T11:34:00.108Z,12.90
2017-05-08T11:36:29.143Z,12.80
2017-05-08T11:38:58.299Z,12.90
2017-05-08T11:41:26.594Z,13.00
2017-05-08T11:43:54.859Z,13.10
2017-05-08T11:46:23.820Z,13.00
2017-05-08T11:48:52.055Z,13.00
2017-05-08T11:51:20.344Z,12.80
2017-05-08T11:53:48.604Z,13.00
2017-05-08T11:56:16.866Z,13.30
2017-05-08T11:58:45.086Z,13.40
2017-05-08T12:01:13.323Z,13.40
2017-05-08T12:03:41.551Z,13.40
2017-05-08T12:06:09.854Z,13.50
2017-05-08T12:08:38.173Z,13.40
2017-05-08T12:11:06.411Z,13.40
2017-05-08T12:13:34.823Z,13.20
2017-05-08T12:16:03.169Z,13.00
2017-05-08T12:18:31.502Z,13.00
2017-05-08T12:20:59.916Z,13.00
2017-05-08T12:23:28.196Z,12.80
2017-05-08T12:25:56.428Z,12.50
2017-05-08T12:28:24.748Z,12.50
2017-05-08T12:30:53.004Z,12.50
2017-05-08T12:33:21.995Z,12.30
2017-05-08T12:35:50.333Z,12.40
2017-05-08T12:38:18.564Z,12.60
2017-05-08T12:40:46.860Z,12.60
2017-05-08T12:43:15.120Z,12.50
2017-05-08T12:45:43.412Z,12.60
2017-05-08T12:48:11.664Z,12.90
2017-05-08T12:50:39.940Z,13.10
2017-05-08T12:53:08.229Z,13.20
2017-05-08T12:55:36.474Z,13.10
2017-05-08T12:58:05.519Z,12.70
2017-05-08T13:00:33.905Z,12.60
2017-05-08T13:03:02.173Z,12.50
2017-05-08T13:05:30.402Z,12.50
2017-05-08T13:07:59.492Z,12.40
2017-05-08T13:10:28.508Z,12.60
2017-05-08T13:12:56.763Z,12.60
2017-05-08T13:15:25.009Z,12.70
2017-05-08T13:17:53.228Z,12.90
2017-05-08T13:20:21.509Z,12.90
2017-05-08T13:22:49.763Z,12.90
2017-05-08T13:25:18.762Z,12.50
2017-05-08T13:27:47.036Z,12.20
2017-05-08T13:30:15.355Z,12.00
2017-05-08T13:32:43.732Z,12.10
2017-05-08T13:35:12.070Z,11.90
2017-05-08T13:37:40.303Z,12.20
2017-05-08T13:40:08.538Z,12.10
2017-05-08T13:42:36.820Z,12.00
2017-05-08T13:45:05.068Z,12.10
2017-05-08T13:47:33.301Z,12.20
2017-05-08T13:50:01.611Z,12.40
2017-05-08T13:52:30.752Z,12.50
2017-05-08T13:54:59.072Z,12.70
2017-05-08T13:57:27.352Z,12.70
2017-05-08T13:59:56.323Z,12.10
2017-05-08T14:02:24.634Z,11.90
2017-05-08T14:04:53.663Z,11.90
2017-05-08T14:07:21.931Z,12.00
2017-05-08T14:09:50.172Z,11.90
2017-05-08T14:12:18.476Z,11.90
2017-05-08T14:14:46.790Z,11.90
2017-05-08T14:17:16.193Z,11.70
2017-05-08T14:19:44.476Z,11.90
2017-05-08T14:22:12.714Z,12.00
2017-05-08T14:24:41.095Z,12.00
2017-05-08T14:27:09.441Z,11.90
2017-05-08T14:29:37.668Z,12.00
2017-05-08T14:32:05.998Z,12.30
2017-05-08T14:34:34.250Z,12.30
2017-05-08T14:37:02.504Z,12.30
2017-05-08T14:39:30.814Z,12.20
2017-05-08T14:41:59.081Z,12.20
2017-05-08T14:44:28.062Z,12.20
2017-05-08T14:46:57.033Z,12.20
2017-05-08T14:49:25.384Z,12.10
2017-05-08T14:51:53.630Z,12.00
2017-05-08T14:54:21.872Z,12.00
2017-05-08T14:56:50.851Z,12.00
2017-05-08T14:59:19.217Z,12.20
2017-05-08T15:01:47.538Z,12.40
2017-05-08T15:04:16.532Z,12.60
2017-05-08T15:06:44.828Z,13.00
2017-05-08T15:09:13.064Z,13.10
2017-05-08T15:11:42.121Z,12.80
2017-05-08T15:14:10.365Z,12.90
2017-05-08T15:16:38.596Z,13.00
2017-05-08T15:19:07.000Z,12.90
2017-05-08T15:21:35.997Z,12.80
2017-05-08T15:24:04.371Z,13.40
2017-05-08T15:26:32.652Z,13.90
2017-05-08T15:29:01.067Z,13.90
2017-05-08T15:31:29.444Z,13.70
2017-05-08T15:33:57.688Z,13.60
2017-05-08T15:36:25.952Z,13.50
2017-05-08T15:38:54.231Z,14.50
2017-05-08T15:41:22.508Z,15.50
2017-05-08T15:43:50.801Z,15.20
2017-05-08T15:46:19.070Z,14.20
2017-05-08T15:48:47.337Z,13.70
2017-05-08T15:51:15.618Z,13.30
2017-05-08T15:53:43.848Z,12.70
2017-05-08T15:56:12.097Z,12.60
2017-05-08T15:58:40.343Z,12.60
2017-05-08T16:01:08.586Z,13.20
2017-05-08T16:03:36.891Z,13.90
2017-05-08T16:06:05.154Z,13.60
2017-05-08T16:08:34.132Z,13.20
2017-05-08T16:11:03.259Z,12.40
2017-05-08T16:13:31.529Z,12.80
2017-05-08T16:15:59.809Z,12.70
2017-05-08T16:18:28.147Z,12.80
2017-05-08T16:20:57.132Z,13.20
2017-05-08T16:23:25.866Z,13.50
2017-05-08T16:25:54.220Z,13.40
2017-05-08T16:28:23.428Z,13.10
2017-05-08T16:30:51.672Z,13.00
2017-05-08T16:33:20.003Z,13.60
2017-05-08T16:35:48.240Z,13.60
2017-05-08T16:38:17.269Z,13.30
2017-05-08T16:40:45.509Z,13.00
2017-05-08T16:43:14.499Z,12.70
2017-05-08T16:45:43.512Z,12.80
2017-05-08T16:48:11.767Z,12.50
2017-05-08T16:50:40.775Z,11.90
2017-05-08T16:53:09.014Z,11.90
2017-05-08T16:55:37.259Z,12.40
2017-05-08T16:58:05.516Z,12.70
2017-05-08T17:00:33.744Z,13.00
2017-05-08T17:03:01.994Z,13.10
2017-05-08T17:05:30.565Z,12.90
2017-05-08T17:07:58.803Z,12.60
2017-05-08T17:10:27.156Z,12.30
2017-05-08T17:12:56.163Z,12.30
2017-05-08T17:15:25.200Z,12.00
2017-05-08T17:17:53.563Z,11.90
2017-05-08T17:20:21.789Z,11.90
2017-05-08T17:22:50.100Z,11.90
2017-05-08T17:25:18.337Z,12.40
2017-05-08T17:27:46.678Z,12.40
2017-05-08T17:30:15.025Z,12.30
2017-05-08T17:32:43.255Z,12.60
2017-05-08T17:35:11.725Z,12.60
2017-05-08T17:37:40.180Z,14.20
2017-05-08T17:40:08.409Z,13.00
2017-05-08T17:42:36.713Z,13.40
2017-05-08T17:45:04.982Z,13.80
2017-05-08T17:47:33.260Z,13.70
2017-05-08T17:50:01.566Z,13.70
2017-05-08T17:52:29.836Z,13.60
2017-05-08T17:54:58.091Z,13.50
2017-05-08T17:57:26.321Z,13.60
2017-05-08T17:59:54.581Z,13.20
2017-05-08T18:02:22.860Z,13.00
2017-05-08T18:04:51.131Z,12.80
2017-05-08T18:07:19.453Z,12.50
2017-05-08T18:09:47.684Z,12.30
2017-05-08T18:12:16.041Z,12.30
2017-05-08T18:14:44.300Z,11.70
2017-05-08T18:17:12.576Z,11.50
2017-05-08T18:19:40.832Z,11.20
2017-05-08T18:22:09.057Z,10.90
2017-05-08T18:24:37.485Z,10.70
2017-05-08T18:27:05.769Z,10.50
2017-05-08T18:29:34.016Z,10.40
2017-05-08T18:32:02.314Z,10.40
2017-05-08T18:34:30.597Z,10.20
2017-05-08T18:36:58.839Z,10.20
2017-05-08T18:39:27.820Z,10.00
2017-05-08T18:41:56.240Z,10.00
2017-05-08T18:44:24.607Z,9.90
2017-05-08T18:46:53.585Z,9.60
2017-05-08T18:49:22.581Z,9.60
2017-05-08T18:51:51.577Z,9.50
2017-05-08T18:54:20.552Z,9.40
2017-05-08T18:56:48.894Z,9.50
2017-05-08T18:59:17.333Z,9.50
2017-05-08T19:01:45.587Z,9.30
2017-05-08T19:04:14.620Z,9.20
2017-05-08T19:06:42.917Z,9.30
2017-05-08T19:09:11.143Z,9.20
2017-05-08T19:11:39.392Z,9.10
2017-05-08T19:14:07.640Z,9.00
2017-05-08T19:16:35.889Z,8.90
2017-05-08T19:19:04.150Z,8.90
2017-05-08T19:21:33.131Z,8.70
2017-05-08T19:24:02.093Z,8.70
2017-05-08T19:26:30.348Z,8.70
2017-05-08T19:28:58.597Z,8.60
2017-05-08T19:31:27.018Z,8.60
2017-05-08T19:33:55.347Z,8.60
2017-05-08T19:36:23.575Z,8.60
2017-05-08T19:38:51.862Z,8.60
2017-05-08T19:41:20.883Z,8.50
2017-05-08T19:43:49.868Z,8.60
2017-05-08T19:46:18.838Z,8.60
2017-05-08T19:48:47.079Z,8.60
2017-05-08T19:51:15.428Z,8.50
2017-05-08T19:53:43.708Z,8.40
2017-05-08T19:56:11.960Z,8.40
2017-05-08T19:58:40.189Z,8.30
2017-05-08T20:01:08.428Z,8.20
2017-05-08T20:03:36.684Z,8.10
2017-05-08T20:06:05.676Z,7.90
2017-05-08T20:08:33.944Z,8.10
2017-05-08T20:11:02.910Z,8.10
2017-05-08T20:13:31.174Z,8.20
2017-05-08T20:15:59.413Z,8.10
2017-05-08T20:18:27.668Z,8.10
2017-05-08T20:20:55.911Z,7.90
2017-05-08T20:23:24.177Z,8.00
2017-05-08T20:25:52.418Z,8.00
2017-05-08T20:28:20.652Z,7.80
2017-05-08T20:30:49.621Z,7.70
2017-05-08T20:33:17.886Z,7.70
2017-05-08T20:35:46.249Z,7.70
2017-05-08T20:38:14.492Z,7.70
2017-05-08T20:40:42.716Z,7.70
2017-05-08T20:43:10.959Z,7.60
2017-05-08T20:45:39.205Z,7.50
2017-05-08T20:48:08.215Z,7.40
2017-05-08T20:50:36.496Z,7.50
2017-05-08T20:53:04.760Z,7.40
2017-05-08T20:55:33.037Z,7.30
2017-05-08T20:58:01.294Z,7.20
2017-05-08T21:00:29.533Z,7.20
2017-05-08T21:02:57.892Z,7.20
2017-05-08T21:05:26.130Z,7.20
2017-05-08T21:07:55.146Z,7.20
2017-05-08T21:10:23.438Z,7.20
2017-05-08T21:12:51.713Z,7.10
2017-05-08T21:15:19.971Z,7.10
2017-05-08T21:17:48.205Z,7.00
2017-05-08T21:20:16.449Z,7.00
2017-05-08T21:22:44.738Z,7.10
2017-05-08T21:25:12.986Z,7.00
2017-05-08T21:27:41.223Z,7.00
2017-05-08T21:30:10.239Z,7.00
2017-05-08T21:32:38.497Z,7.00
2017-05-08T21:35:06.876Z,7.00
2017-05-08T21:37:35.096Z,7.00
2017-05-08T21:40:03.343Z,7.10
2017-05-08T21:42:31.575Z,7.00
2017-05-08T21:44:59.816Z,7.00
2017-05-08T21:47:28.064Z,7.00
2017-05-08T21:49:56.316Z,7.00
2017-05-08T21:52:24.540Z,7.00
2017-05-08T21:54:52.785Z,7.00
2017-05-08T21:57:21.265Z,6.80
2017-05-08T21:59:49.493Z,6.70
2017-05-08T22:02:17.741Z,6.70
2017-05-08T22:04:46.006Z,6.80
2017-05-08T22:07:14.237Z,6.70
2017-05-08T22:09:42.496Z,6.70
2017-05-08T22:12:10.781Z,6.70
2017-05-08T22:14:39.027Z,6.70
2017-05-08T22:17:07.274Z,6.70
2017-05-08T22:19:35.486Z,6.60
2017-05-08T22:22:04.468Z,6.60
2017-05-08T22:24:33.455Z,6.50
2017-05-08T22:27:01.766Z,6.50
2017-05-08T22:29:30.014Z,6.40
2017-05-08T22:31:58.992Z,6.30
2017-05-08T22:34:27.255Z,6.30
2017-05-08T22:36:55.577Z,6.30
2017-05-08T22:39:23.839Z,6.30
2017-05-08T22:41:52.119Z,6.20
2017-05-08T22:44:20.437Z,6.10
2017-05-08T22:46:48.664Z,6.10
2017-05-08T22:49:17.651Z,5.90
2017-05-08T22:51:46.657Z,5.80
2017-05-08T22:54:15.632Z,5.80
2017-05-08T22:56:44.653Z,5.60
2017-05-08T22:59:12.893Z,5.70
2017-05-08T23:01:41.873Z,5.70
2017-05-08T23:04:10.110Z,5.70
2017-05-08T23:06:38.336Z,5.60
2017-05-08T23:09:06.558Z,5.60
2017-05-08T23:11:34.792Z,5.60
2017-05-08T23:14:03.024Z,5.60
2017-05-08T23:16:31.281Z,5.50
2017-05-08T23:18:59.544Z,5.40
2017-05-08T23:21:27.773Z,5.40
2017-05-08T23:23:56.085Z,5.30
2017-05-08T23:26:24.332Z,5.30
2017-05-08T23:28:52.578Z,5.40
2017-05-08T23:31:20.809Z,5.50
2017-05-08T23:33:49.057Z,5.60
2017-05-08T23:36:18.061Z,5.50
2017-05-08T23:38:47.109Z,5.50
2017-05-08T23:41:15.436Z,5.50
2017-05-08T23:43:44.397Z,5.40
2017-05-08T23:46:12.660Z,5.40
2017-05-08T23:48:40.897Z,5.30
2017-05-08T23:51:09.124Z,5.20
2017-05-08T23:53:37.384Z,5.10
2017-05-08T23:56:05.651Z,5.10
2017-05-08T23:58:33.896Z,5.00
